Morse Bluff, Nebraska
Current Conditions -  °F | °C
As of 6:15 PM on Wednesday 22 Oct 2014 (Local Time) from KFET Reporting Station
Moderate Rain Moderate Rain  
Wind Chill: 64°   Ceiling: 1300
Heat Index: 64°   Visibility: 5mi
Dew Point: 62°   Wind: 15mph
Humidity: 92%   Direction: 270°W
Pressure: 30.03"   Gusts: 22mph
Location:  41.43°N, 96.77°W
Report Text: KFET 222315Z AUTO 27013G19KT 5SM RA SCT007 BKN013 OVC065 18/17 A3003 RMK AO2 P0005 T01780165
Loading
Personal Weather Stations






























Interactive Weather Map
Tropical Storm Tracking
New forecast layout! Learn more

10-Day Weather Forecast

Advertisements
Track Severe Weather on mobile